createdAt,value
2022-12-31T00:00:40.163Z,99930.27
2022-12-31T00:04:04.769Z,99920.89
2022-12-31T00:07:11.650Z,99925.82
2022-12-31T00:10:18.521Z,99929.05
2022-12-31T00:13:25.079Z,99928.89
2022-12-31T00:16:33.823Z,99918.02
2022-12-31T00:19:41.227Z,99919.60
2022-12-31T00:22:47.939Z,99917.48
2022-12-31T00:25:54.694Z,99907.79
2022-12-31T00:29:02.619Z,99912.72
2022-12-31T00:32:09.791Z,99905.09
2022-12-31T00:35:16.595Z,99896.91
2022-12-31T00:38:23.378Z,99891.58
2022-12-31T00:41:31.483Z,99895.05
2022-12-31T00:44:38.348Z,99894.22
2022-12-31T00:47:45.127Z,99901.45
2022-12-31T00:50:52.165Z,99905.69
2022-12-31T00:53:59.712Z,99918.58
2022-12-31T00:57:06.592Z,99930.84
2022-12-31T01:00:15.927Z,99933.08
2022-12-31T01:03:22.783Z,99925.59
2022-12-31T01:06:29.902Z,99918.27
2022-12-31T01:09:36.681Z,99907.36
2022-12-31T01:12:43.478Z,99904.64
2022-12-31T01:15:50.316Z,99905.40
2022-12-31T01:18:59.057Z,99910.95
2022-12-31T01:22:05.901Z,99908.67
2022-12-31T01:25:12.801Z,99899.59
2022-12-31T01:28:19.648Z,99902.42
2022-12-31T01:31:27.387Z,99907.94
2022-12-31T01:34:34.478Z,99915.34
2022-12-31T01:37:41.578Z,99911.11
2022-12-31T01:40:48.352Z,99911.23
2022-12-31T01:43:58.814Z,99916.92
2022-12-31T01:47:07.480Z,99915.07
2022-12-31T01:50:19.476Z,99915.06
2022-12-31T01:53:26.380Z,99919.00
2022-12-31T01:56:33.872Z,99913.95
2022-12-31T01:59:41.323Z,99915.17
2022-12-31T02:02:48.646Z,99914.59
2022-12-31T02:05:59.380Z,99923.41
2022-12-31T02:09:06.164Z,99918.11
2022-12-31T02:12:13.371Z,99926.15
2022-12-31T02:15:23.091Z,99928.98
2022-12-31T02:18:36.820Z,99931.56
2022-12-31T02:21:57.824Z,99919.14
2022-12-31T02:25:23.205Z,99913.17
2022-12-31T02:28:50.552Z,99909.65
2022-12-31T02:32:02.550Z,99907.85
2022-12-31T02:35:14.606Z,99906.34
2022-12-31T02:38:25.781Z,99907.18
2022-12-31T02:41:46.500Z,99911.11
2022-12-31T02:44:53.273Z,99919.09
2022-12-31T02:48:12.755Z,99925.36
2022-12-31T02:51:27.447Z,99929.73
2022-12-31T02:54:42.277Z,99927.84
2022-12-31T02:57:56.933Z,99928.79
2022-12-31T03:01:21.251Z,99940.45
2022-12-31T03:04:36.299Z,99943.56
2022-12-31T03:07:44.930Z,99955.55
2022-12-31T03:10:51.684Z,99961.71
2022-12-31T03:13:58.475Z,99964.26
2022-12-31T03:17:05.289Z,99956.96
2022-12-31T03:20:29.810Z,99949.95
2022-12-31T03:23:38.461Z,99946.40
2022-12-31T03:26:45.285Z,99949.59
2022-12-31T03:29:52.207Z,99951.23
2022-12-31T03:32:59.696Z,99942.94
2022-12-31T03:36:09.276Z,99938.38
2022-12-31T03:39:14.430Z,99944.78
2022-12-31T03:42:21.100Z,99954.20
2022-12-31T03:45:28.133Z,99952.98
2022-12-31T03:48:34.868Z,99951.41
2022-12-31T03:51:45.269Z,99954.88
2022-12-31T03:54:52.019Z,99953.98
2022-12-31T03:57:59.006Z,99950.06
2022-12-31T04:01:06.155Z,99949.05
2022-12-31T04:04:12.961Z,99955.52
2022-12-31T04:07:19.853Z,99958.61
2022-12-31T04:10:26.701Z,99958.26
2022-12-31T04:13:33.590Z,99963.46
2022-12-31T04:16:40.449Z,99965.98
2022-12-31T04:19:47.409Z,99973.65
2022-12-31T04:22:54.360Z,99976.58
2022-12-31T04:26:01.170Z,99981.85
2022-12-31T04:29:08.069Z,99976.55
2022-12-31T04:32:14.845Z,99965.32
2022-12-31T04:35:22.511Z,99961.58
2022-12-31T04:38:29.770Z,99958.24
2022-12-31T04:41:36.983Z,99957.71
2022-12-31T04:44:43.797Z,99952.86
2022-12-31T04:47:50.752Z,99959.38
2022-12-31T04:50:57.473Z,99960.56
2022-12-31T04:54:04.577Z,99963.58
2022-12-31T04:57:11.323Z,99965.25
2022-12-31T05:00:20.305Z,99970.23
2022-12-31T05:03:27.828Z,99971.56
2022-12-31T05:06:34.588Z,99970.59
2022-12-31T05:09:41.358Z,99971.64
2022-12-31T05:12:47.891Z,99972.30
2022-12-31T05:15:54.534Z,99963.22
2022-12-31T05:19:02.200Z,99966.08
2022-12-31T05:22:26.889Z,99959.03
2022-12-31T05:25:34.174Z,99956.33
2022-12-31T05:28:41.133Z,99957.95
2022-12-31T05:31:47.862Z,99970.29
2022-12-31T05:34:54.764Z,99975.61
2022-12-31T05:38:02.242Z,99971.96
2022-12-31T05:41:10.376Z,99967.45
2022-12-31T05:44:17.197Z,99960.86
2022-12-31T05:47:24.529Z,99960.05
2022-12-31T05:50:31.214Z,99951.70
2022-12-31T05:53:43.903Z,99951.95
2022-12-31T05:56:50.707Z,99971.44
2022-12-31T05:59:57.425Z,99978.63
2022-12-31T06:03:04.509Z,99987.20
2022-12-31T06:06:11.554Z,99981.97
2022-12-31T06:09:19.252Z,99976.49
2022-12-31T06:12:26.096Z,99966.52
2022-12-31T06:15:33.046Z,99966.40
2022-12-31T06:18:39.702Z,99968.27
2022-12-31T06:21:46.518Z,99967.47
2022-12-31T06:24:53.353Z,99979.32
2022-12-31T06:28:00.117Z,99987.58
2022-12-31T06:31:09.163Z,99988.56
2022-12-31T06:34:16.140Z,99991.67
2022-12-31T06:37:22.892Z,99996.86
2022-12-31T06:40:29.790Z,99983.80
2022-12-31T06:43:37.657Z,99989.77
2022-12-31T06:46:45.387Z,99982.22
2022-12-31T06:49:52.169Z,99980.98
2022-12-31T06:52:58.857Z,99971.02
2022-12-31T06:56:11.334Z,99973.27
2022-12-31T06:59:26.659Z,99966.73
2022-12-31T07:03:00.761Z,99955.65
2022-12-31T07:06:14.793Z,99947.36
2022-12-31T07:09:29.208Z,99938.13
2022-12-31T07:12:47.310Z,99935.33
2022-12-31T07:16:06.119Z,99946.95
2022-12-31T07:19:25.320Z,99951.15
2022-12-31T07:22:33.125Z,99955.06
2022-12-31T07:25:48.556Z,99967.11
2022-12-31T07:29:11.739Z,99973.34
2022-12-31T07:32:30.379Z,99972.23
2022-12-31T07:35:47.276Z,99969.35
2022-12-31T07:39:03.021Z,99973.45
2022-12-31T07:42:16.515Z,99972.09
2022-12-31T07:45:29.674Z,99972.79
2022-12-31T07:48:37.557Z,99983.13
2022-12-31T07:51:46.357Z,99981.23
2022-12-31T07:54:53.351Z,99964.08
2022-12-31T07:58:06.765Z,99956.33
2022-12-31T08:01:15.961Z,99963.61
2022-12-31T08:04:32.753Z,99963.05
2022-12-31T08:07:49.020Z,99961.23
2022-12-31T08:11:07.780Z,99965.94
2022-12-31T08:14:16.132Z,99980.53
2022-12-31T08:17:23.905Z,99970.16
2022-12-31T08:20:33.901Z,99960.98
2022-12-31T08:23:51.311Z,99953.87
2022-12-31T08:27:06.352Z,99952.34
2022-12-31T08:30:16.241Z,99951.92
2022-12-31T08:33:28.854Z,99946.34
2022-12-31T08:36:46.659Z,99940.51
2022-12-31T08:40:08.196Z,99945.14
2022-12-31T08:43:31.322Z,99939.73
2022-12-31T08:46:46.060Z,99929.48
2022-12-31T08:49:53.671Z,99935.30
2022-12-31T08:53:02.247Z,99938.16
2022-12-31T08:56:17.304Z,99938.81
2022-12-31T08:59:38.288Z,99934.52
2022-12-31T09:03:04.365Z,99942.14
2022-12-31T09:06:20.302Z,99946.16
2022-12-31T09:09:34.135Z,99939.82
2022-12-31T09:12:51.280Z,99934.84
2022-12-31T09:16:07.549Z,99918.60
2022-12-31T09:19:14.350Z,99919.83
2022-12-31T09:22:21.688Z,99922.91
2022-12-31T09:25:29.956Z,99928.92
2022-12-31T09:28:46.615Z,99928.76
2022-12-31T09:31:59.269Z,99924.85
2022-12-31T09:35:13.698Z,99919.45
2022-12-31T09:38:25.787Z,99909.61
2022-12-31T09:42:04.102Z,99916.00
2022-12-31T09:45:48.180Z,99917.59
2022-12-31T09:49:28.743Z,99913.34
2022-12-31T09:52:48.642Z,99906.84
2022-12-31T09:56:02.107Z,99908.01
2022-12-31T09:59:14.880Z,99887.23
2022-12-31T10:02:36.719Z,99892.13
2022-12-31T10:06:02.449Z,99881.84
2022-12-31T10:09:38.266Z,99889.07
2022-12-31T10:13:04.561Z,99892.60
2022-12-31T10:16:36.761Z,99898.27
2022-12-31T10:20:12.676Z,99894.07
2022-12-31T10:24:01.069Z,99893.81
2022-12-31T10:27:34.685Z,99882.80
2022-12-31T10:30:49.664Z,99875.32
2022-12-31T10:34:13.346Z,99875.69
2022-12-31T10:37:24.633Z,99868.70
2022-12-31T10:40:54.314Z,99868.11
2022-12-31T10:44:30.904Z,99866.40
2022-12-31T10:48:01.068Z,99857.91
2022-12-31T10:51:35.337Z,99849.88
2022-12-31T10:55:04.861Z,99854.22
2022-12-31T10:58:38.504Z,99854.88
2022-12-31T11:01:58.221Z,99842.55
2022-12-31T11:05:32.908Z,99836.71
2022-12-31T11:09:09.889Z,99836.17
2022-12-31T11:12:36.881Z,99836.02
2022-12-31T11:16:08.773Z,99831.56
2022-12-31T11:19:26.152Z,99834.15
2022-12-31T11:22:48.469Z,99830.85
2022-12-31T11:26:11.214Z,99837.80
2022-12-31T11:29:38.273Z,99842.12
2022-12-31T11:33:00.490Z,99833.12
2022-12-31T11:36:20.852Z,99828.23
2022-12-31T11:39:42.555Z,99826.00
2022-12-31T11:42:57.837Z,99821.91
2022-12-31T11:46:45.528Z,99821.08
2022-12-31T11:50:17.077Z,99816.77
2022-12-31T11:53:44.671Z,99815.81
2022-12-31T11:57:00.752Z,99819.70
2022-12-31T12:00:19.037Z,99823.67
2022-12-31T12:03:26.782Z,99830.55
2022-12-31T12:06:34.563Z,99824.20
2022-12-31T12:09:42.697Z,99830.34
2022-12-31T12:12:49.511Z,99833.64
2022-12-31T12:16:00.186Z,99836.10
2022-12-31T12:19:17.936Z,99833.85
2022-12-31T12:22:29.003Z,99828.89
2022-12-31T12:25:42.581Z,99829.27
2022-12-31T12:28:49.196Z,99826.65
2022-12-31T12:32:01.981Z,99827.08
2022-12-31T12:35:29.809Z,99835.04
2022-12-31T12:38:37.955Z,99844.60
2022-12-31T12:41:44.908Z,99843.27
2022-12-31T12:45:06.265Z,99841.96
2022-12-31T12:48:21.066Z,99845.02
2022-12-31T12:51:46.423Z,99843.71
2022-12-31T12:55:06.238Z,99842.77
2022-12-31T12:58:24.247Z,99834.88
2022-12-31T13:01:40.685Z,99832.47
2022-12-31T13:05:13.106Z,99834.34
2022-12-31T13:08:37.095Z,99832.85
2022-12-31T13:11:57.590Z,99834.95
2022-12-31T13:15:14.657Z,99832.36
2022-12-31T13:18:35.999Z,99827.60
2022-12-31T13:21:54.755Z,99829.92
2022-12-31T13:25:07.082Z,99830.03
2022-12-31T13:28:16.749Z,99836.02
2022-12-31T13:31:30.411Z,99840.79
2022-12-31T13:34:41.439Z,99840.14
2022-12-31T13:37:49.847Z,99839.65
2022-12-31T13:41:05.252Z,99848.16
2022-12-31T13:44:19.262Z,99850.58
2022-12-31T13:47:34.691Z,99862.39
2022-12-31T13:50:51.287Z,99856.95
2022-12-31T13:54:04.923Z,99863.65
2022-12-31T13:57:24.725Z,99860.73
2022-12-31T14:00:38.205Z,99859.20
2022-12-31T14:03:51.775Z,99860.19
2022-12-31T14:07:03.817Z,99854.75
2022-12-31T14:10:15.637Z,99866.50
2022-12-31T14:13:40.433Z,99868.24
2022-12-31T14:16:54.405Z,99876.46
2022-12-31T14:20:12.528Z,99878.86
2022-12-31T14:23:28.725Z,99877.23
2022-12-31T14:26:37.735Z,99873.30
2022-12-31T14:29:50.023Z,99869.67
2022-12-31T14:33:07.448Z,99867.42
2022-12-31T14:36:27.186Z,99866.48
2022-12-31T14:39:45.285Z,99877.69
2022-12-31T14:43:12.611Z,99879.61
2022-12-31T14:46:30.614Z,99887.94
2022-12-31T14:49:49.022Z,99899.20
2022-12-31T14:53:07.433Z,99905.11
2022-12-31T14:59:58.426Z,99906.39
2022-12-31T15:03:08.956Z,99911.94
2022-12-31T15:06:44.406Z,99908.30
2022-12-31T15:10:14.716Z,99909.97
2022-12-31T15:13:38.701Z,99914.68
2022-12-31T15:16:54.500Z,99917.96
2022-12-31T15:20:34.438Z,99919.88
2022-12-31T15:23:43.977Z,99928.86
2022-12-31T15:26:57.691Z,99924.79
2022-12-31T15:30:06.457Z,99919.17
2022-12-31T15:33:26.872Z,99921.55
2022-12-31T15:36:36.381Z,99928.00
2022-12-31T15:39:44.739Z,99931.65
2022-12-31T15:42:56.459Z,99944.24
2022-12-31T15:46:05.323Z,99946.75
2022-12-31T15:49:18.334Z,99946.77
2022-12-31T15:52:32.375Z,99942.73
2022-12-31T15:55:45.411Z,99948.47
2022-12-31T15:58:57.924Z,99955.00
2022-12-31T16:02:04.866Z,99955.41
2022-12-31T16:05:23.843Z,99962.27
2022-12-31T16:08:33.490Z,99963.02
2022-12-31T16:11:44.617Z,99965.54
2022-12-31T16:14:55.682Z,99967.60
2022-12-31T16:18:05.717Z,99974.67
2022-12-31T16:21:32.810Z,99982.69
2022-12-31T16:25:02.754Z,99985.97
2022-12-31T16:28:06.635Z,99988.48
2022-12-31T16:31:18.945Z,99987.90
2022-12-31T16:34:28.541Z,99997.66
2022-12-31T16:37:35.554Z,100000.73
2022-12-31T16:40:43.614Z,100009.39
2022-12-31T16:43:52.102Z,100006.89
2022-12-31T16:47:04.003Z,100010.42
2022-12-31T16:50:18.371Z,100015.59
2022-12-31T16:53:27.951Z,100017.98
2022-12-31T16:56:38.230Z,100015.83
2022-12-31T16:59:48.243Z,100039.48
2022-12-31T17:03:04.410Z,100040.77
2022-12-31T17:06:17.408Z,100040.21
2022-12-31T17:09:38.118Z,100035.64
2022-12-31T17:16:19.940Z,100032.20
2022-12-31T17:19:45.241Z,100031.73
2022-12-31T17:22:54.569Z,100032.37
2022-12-31T17:26:08.591Z,100040.89
2022-12-31T17:29:26.195Z,100033.24
2022-12-31T17:32:38.894Z,100038.30
2022-12-31T17:35:47.587Z,100038.91
2022-12-31T17:38:54.451Z,100054.35
2022-12-31T17:42:01.230Z,100054.02
2022-12-31T17:45:10.467Z,100058.26
2022-12-31T17:48:17.004Z,100058.92
2022-12-31T17:51:24.380Z,100063.33
2022-12-31T17:54:31.757Z,100074.13
2022-12-31T17:57:38.821Z,100074.16
2022-12-31T18:00:45.736Z,100061.43
2022-12-31T18:03:52.732Z,100062.61
2022-12-31T18:06:59.410Z,100064.91
2022-12-31T18:10:06.811Z,100073.70
2022-12-31T18:13:18.535Z,100072.70
2022-12-31T18:16:25.329Z,100076.59
2022-12-31T18:20:03.514Z,100063.56
2022-12-31T18:22:59.082Z,100053.78
2022-12-31T18:26:06.060Z,100056.75
2022-12-31T18:29:19.926Z,100051.40
2022-12-31T18:32:29.818Z,100047.47
2022-12-31T18:39:04.748Z,100046.89
2022-12-31T18:42:14.378Z,100038.98
2022-12-31T18:45:23.074Z,100036.92
2022-12-31T18:48:29.942Z,100043.34
2022-12-31T18:51:37.059Z,100046.75
2022-12-31T18:54:44.052Z,100048.52
2022-12-31T18:57:51.131Z,100047.13
2022-12-31T19:00:58.058Z,100045.30
2022-12-31T19:04:12.177Z,100046.48
2022-12-31T19:07:20.430Z,100055.73
2022-12-31T19:10:29.041Z,100050.56
2022-12-31T19:13:35.702Z,100052.39
2022-12-31T19:16:42.532Z,100062.38
2022-12-31T19:19:49.512Z,100064.38
2022-12-31T19:22:56.623Z,100064.30
2022-12-31T19:26:03.316Z,100065.80
2022-12-31T19:29:16.874Z,100065.48
2022-12-31T19:32:23.659Z,100064.80
2022-12-31T19:35:30.571Z,100066.08
2022-12-31T19:38:37.308Z,100068.09
2022-12-31T19:41:46.104Z,100066.46
2022-12-31T19:44:53.003Z,100070.57
2022-12-31T19:47:59.791Z,100066.13
2022-12-31T19:51:11.485Z,100066.28
2022-12-31T19:54:18.218Z,100059.39
2022-12-31T19:57:24.957Z,100063.19
2022-12-31T20:00:31.781Z,100058.81
2022-12-31T20:03:38.471Z,100056.11
2022-12-31T20:06:45.305Z,100060.30
2022-12-31T20:09:52.522Z,100065.60
2022-12-31T20:12:59.414Z,100069.55
2022-12-31T20:16:09.875Z,100066.70
2022-12-31T20:19:17.314Z,100064.67
2022-12-31T20:22:24.089Z,100064.70
2022-12-31T20:25:30.825Z,100068.92
2022-12-31T20:28:38.281Z,100075.36
2022-12-31T20:31:45.203Z,100077.46
2022-12-31T20:34:51.964Z,100071.92
2022-12-31T20:37:59.228Z,100072.75
2022-12-31T20:41:10.025Z,100078.18
2022-12-31T20:44:17.037Z,100079.54
2022-12-31T20:47:27.387Z,100082.27
2022-12-31T20:50:33.968Z,100083.67
2022-12-31T20:53:40.681Z,100090.50
2022-12-31T20:56:47.479Z,100089.93
2022-12-31T20:59:54.217Z,100086.64
2022-12-31T21:03:14.325Z,100088.43
2022-12-31T21:06:27.803Z,100085.43
2022-12-31T21:09:34.653Z,100092.27
2022-12-31T21:12:44.474Z,100079.23
2022-12-31T21:15:51.727Z,100084.50
2022-12-31T21:18:58.953Z,100085.27
2022-12-31T21:22:05.849Z,100088.50
2022-12-31T21:25:13.400Z,100083.09
2022-12-31T21:28:20.167Z,100079.05
2022-12-31T21:31:27.084Z,100080.66
2022-12-31T21:34:33.993Z,100073.41
2022-12-31T21:37:58.032Z,100076.19
2022-12-31T21:41:08.397Z,100087.08
2022-12-31T21:44:15.561Z,100094.85
2022-12-31T21:47:47.413Z,100100.34
2022-12-31T21:50:56.543Z,100102.66
2022-12-31T21:54:03.379Z,100100.48
2022-12-31T21:57:10.443Z,100099.84
2022-12-31T22:00:43.831Z,100095.52
2022-12-31T22:03:51.369Z,100095.17
2022-12-31T22:06:58.114Z,100093.52
2022-12-31T22:10:04.848Z,100094.21
2022-12-31T22:13:11.694Z,100096.59
2022-12-31T22:16:20.279Z,100089.14
2022-12-31T22:19:27.256Z,100090.94
2022-12-31T22:22:34.236Z,100093.05
2022-12-31T22:25:41.161Z,100087.82
2022-12-31T22:28:49.166Z,100083.05
2022-12-31T22:32:01.019Z,100075.81
2022-12-31T22:35:09.463Z,100081.01
2022-12-31T22:38:16.108Z,100083.30
2022-12-31T22:41:24.601Z,100084.38
2022-12-31T22:44:31.472Z,100082.40
2022-12-31T22:47:38.403Z,100082.54
2022-12-31T22:50:45.163Z,100080.98
2022-12-31T22:53:51.895Z,100084.36
2022-12-31T22:56:58.569Z,100086.98
2022-12-31T23:00:10.061Z,100084.48
2022-12-31T23:03:17.033Z,100085.67
2022-12-31T23:06:26.042Z,100094.52
2022-12-31T23:09:50.585Z,100094.51
2022-12-31T23:12:57.434Z,100091.72
2022-12-31T23:16:22.023Z,100096.14
2022-12-31T23:19:46.317Z,100094.16
2022-12-31T23:23:09.850Z,100101.30
2022-12-31T23:26:16.699Z,100106.88
2022-12-31T23:29:24.018Z,100108.98
2022-12-31T23:32:30.905Z,100105.83
2022-12-31T23:35:37.757Z,100105.89
2022-12-31T23:38:44.568Z,100107.86
2022-12-31T23:41:51.218Z,100107.37
2022-12-31T23:44:57.933Z,100103.27
2022-12-31T23:48:05.196Z,100104.32
2022-12-31T23:51:11.907Z,100096.14
2022-12-31T23:54:18.785Z,100097.89
2022-12-31T23:57:25.545Z,100098.11
